sensor_id;sensor_type;location;lat;lon;timestamp;temperature;humidity
1447;DHT22;717;51.522;7.266;2023-12-20T00:02:26;11.20;99.90
1447;DHT22;717;51.522;7.266;2023-12-20T00:04:56;11.10;99.90
1447;DHT22;717;51.522;7.266;2023-12-20T00:07:26;11.10;99.90
1447;DHT22;717;51.522;7.266;2023-12-20T00:09:59;11.10;99.90
1447;DHT22;717;51.522;7.266;2023-12-20T00:12:29;11.00;99.90
1447;DHT22;717;51.522;7.266;2023-12-20T00:14:59;11.00;99.90
1447;DHT22;717;51.522;7.266;2023-12-20T00:17:30;11.00;99.90
1447;DHT22;717;51.522;7.266;2023-12-20T00:20:00;11.00;99.90
1447;DHT22;717;51.522;7.266;2023-12-20T00:22:30;11.00;99.90
1447;DHT22;717;51.522;7.266;2023-12-20T00:25:02;11.00;99.90
1447;DHT22;717;51.522;7.266;2023-12-20T00:27:33;11.10;99.90
1447;DHT22;717;51.522;7.266;2023-12-20T00:30:03;11.00;99.90
1447;DHT22;717;51.522;7.266;2023-12-20T00:32:34;11.00;99.90
1447;DHT22;717;51.522;7.266;2023-12-20T00:35:05;11.00;99.90
1447;DHT22;717;51.522;7.266;2023-12-20T00:37:35;10.90;99.90
1447;DHT22;717;51.522;7.266;2023-12-20T00:40:08;10.90;99.90
1447;DHT22;717;51.522;7.266;2023-12-20T00:42:38;10.90;99.90
1447;DHT22;717;51.522;7.266;2023-12-20T00:45:09;10.90;99.90
1447;DHT22;717;51.522;7.266;2023-12-20T00:47:39;10.90;99.90
1447;DHT22;717;51.522;7.266;2023-12-20T00:50:10;10.80;99.90
1447;DHT22;717;51.522;7.266;2023-12-20T00:52:40;10.80;99.90
1447;DHT22;717;51.522;7.266;2023-12-20T00:55:12;10.70;99.90
1447;DHT22;717;51.522;7.266;2023-12-20T00:57:42;10.60;99.90
1447;DHT22;717;51.522;7.266;2023-12-20T01:00:13;10.70;99.90
1447;DHT22;717;51.522;7.266;2023-12-20T01:02:44;10.70;99.90
1447;DHT22;717;51.522;7.266;2023-12-20T01:05:16;10.70;99.90
1447;DHT22;717;51.522;7.266;2023-12-20T01:07:46;10.60;99.90
1447;DHT22;717;51.522;7.266;2023-12-20T01:10:19;10.60;99.90
1447;DHT22;717;51.522;7.266;2023-12-20T01:12:49;10.60;99.90
1447;DHT22;717;51.522;7.266;2023-12-20T01:15:19;10.70;99.90
1447;DHT22;717;51.522;7.266;2023-12-20T01:17:50;10.60;99.90
1447;DHT22;717;51.522;7.266;2023-12-20T01:20:20;10.60;99.90
1447;DHT22;717;51.522;7.266;2023-12-20T01:22:50;10.60;99.90
1447;DHT22;717;51.522;7.266;2023-12-20T01:25:22;10.50;99.90
1447;DHT22;717;51.522;7.266;2023-12-20T01:27:52;10.50;99.90
1447;DHT22;717;51.522;7.266;2023-12-20T01:30:22;10.50;99.90
1447;DHT22;717;51.522;7.266;2023-12-20T01:32:52;10.50;99.90
1447;DHT22;717;51.522;7.266;2023-12-20T01:35:22;10.50;99.90
1447;DHT22;717;51.522;7.266;2023-12-20T01:37:52;10.50;99.90
1447;DHT22;717;51.522;7.266;2023-12-20T01:40:26;10.50;99.90
1447;DHT22;717;51.522;7.266;2023-12-20T01:42:59;10.40;99.90
1447;DHT22;717;51.522;7.266;2023-12-20T01:45:30;10.40;99.90
1447;DHT22;717;51.522;7.266;2023-12-20T01:48:00;10.30;99.90
1447;DHT22;717;51.522;7.266;2023-12-20T01:50:31;10.30;99.90
1447;DHT22;717;51.522;7.266;2023-12-20T01:53:02;10.30;99.90
1447;DHT22;717;51.522;7.266;2023-12-20T01:55:38;10.20;99.90
1447;DHT22;717;51.522;7.266;2023-12-20T01:58:09;10.20;99.90
1447;DHT22;717;51.522;7.266;2023-12-20T02:00:39;10.20;99.90
1447;DHT22;717;51.522;7.266;2023-12-20T02:03:10;10.20;99.90
1447;DHT22;717;51.522;7.266;2023-12-20T02:05:40;10.20;99.90
1447;DHT22;717;51.522;7.266;2023-12-20T02:08:10;10.20;99.90
1447;DHT22;717;51.522;7.266;2023-12-20T02:10:43;10.10;99.90
1447;DHT22;717;51.522;7.266;2023-12-20T02:13:13;10.10;99.90
1447;DHT22;717;51.522;7.266;2023-12-20T02:15:43;10.10;99.90
1447;DHT22;717;51.522;7.266;2023-12-20T02:18:13;10.10;99.90
1447;DHT22;717;51.522;7.266;2023-12-20T02:20:44;10.10;99.90
1447;DHT22;717;51.522;7.266;2023-12-20T02:23:17;10.20;99.90
1447;DHT22;717;51.522;7.266;2023-12-20T02:25:46;10.20;99.90
1447;DHT22;717;51.522;7.266;2023-12-20T02:28:17;10.20;99.90
1447;DHT22;717;51.522;7.266;2023-12-20T02:30:48;10.10;99.90
1447;DHT22;717;51.522;7.266;2023-12-20T02:33:19;10.00;99.90
1447;DHT22;717;51.522;7.266;2023-12-20T02:35:49;10.10;99.90
1447;DHT22;717;51.522;7.266;2023-12-20T02:38:22;10.10;99.90
1447;DHT22;717;51.522;7.266;2023-12-20T02:40:52;10.00;99.90
1447;DHT22;717;51.522;7.266;2023-12-20T02:43:22;9.90;99.90
1447;DHT22;717;51.522;7.266;2023-12-20T02:45:52;9.90;99.90
1447;DHT22;717;51.522;7.266;2023-12-20T02:48:22;9.90;99.90
1447;DHT22;717;51.522;7.266;2023-12-20T02:50:52;9.90;99.90
1447;DHT22;717;51.522;7.266;2023-12-20T02:53:25;9.80;99.90
1447;DHT22;717;51.522;7.266;2023-12-20T02:55:55;9.80;99.90
1447;DHT22;717;51.522;7.266;2023-12-20T02:58:25;9.80;99.90
1447;DHT22;717;51.522;7.266;2023-12-20T03:00:54;9.80;99.90
1447;DHT22;717;51.522;7.266;2023-12-20T03:03:24;9.90;99.90
1447;DHT22;717;51.522;7.266;2023-12-20T03:05:55;9.80;99.90
1447;DHT22;717;51.522;7.266;2023-12-20T03:08:27;9.80;99.90
1447;DHT22;717;51.522;7.266;2023-12-20T03:10:59;9.90;99.90
1447;DHT22;717;51.522;7.266;2023-12-20T03:13:29;9.90;99.90
1447;DHT22;717;51.522;7.266;2023-12-20T03:15:59;9.90;99.90
1447;DHT22;717;51.522;7.266;2023-12-20T03:18:29;9.90;99.90
1447;DHT22;717;51.522;7.266;2023-12-20T03:20:59;9.90;99.90
1447;DHT22;717;51.522;7.266;2023-12-20T03:23:32;9.70;99.90
1447;DHT22;717;51.522;7.266;2023-12-20T03:26:02;9.70;99.90
1447;DHT22;717;51.522;7.266;2023-12-20T03:28:32;9.70;99.90
1447;DHT22;717;51.522;7.266;2023-12-20T03:31:02;9.70;99.90
1447;DHT22;717;51.522;7.266;2023-12-20T03:33:32;9.70;99.90
1447;DHT22;717;51.522;7.266;2023-12-20T03:36:02;9.60;99.90
1447;DHT22;717;51.522;7.266;2023-12-20T03:38:35;9.60;99.90
1447;DHT22;717;51.522;7.266;2023-12-20T03:41:06;9.60;99.90
1447;DHT22;717;51.522;7.266;2023-12-20T03:43:36;9.60;99.90
1447;DHT22;717;51.522;7.266;2023-12-20T03:46:08;9.60;99.90
1447;DHT22;717;51.522;7.266;2023-12-20T03:48:37;9.60;99.90
1447;DHT22;717;51.522;7.266;2023-12-20T03:51:07;9.60;99.90
1447;DHT22;717;51.522;7.266;2023-12-20T03:53:40;9.70;99.90
1447;DHT22;717;51.522;7.266;2023-12-20T03:56:10;9.70;99.90
1447;DHT22;717;51.522;7.266;2023-12-20T03:58:40;9.60;99.90
1447;DHT22;717;51.522;7.266;2023-12-20T04:01:10;9.60;99.90
1447;DHT22;717;51.522;7.266;2023-12-20T04:03:41;9.60;99.90
1447;DHT22;717;51.522;7.266;2023-12-20T04:06:16;9.50;99.90
1447;DHT22;717;51.522;7.266;2023-12-20T04:08:49;9.50;99.90
1447;DHT22;717;51.522;7.266;2023-12-20T04:11:19;9.50;99.90
1447;DHT22;717;51.522;7.266;2023-12-20T04:13:49;9.60;99.90
1447;DHT22;717;51.522;7.266;2023-12-20T04:16:19;9.60;99.90
1447;DHT22;717;51.522;7.266;2023-12-20T04:18:49;9.50;99.90
1447;DHT22;717;51.522;7.266;2023-12-20T04:21:19;9.60;99.90
1447;DHT22;717;51.522;7.266;2023-12-20T04:23:51;9.50;99.90
1447;DHT22;717;51.522;7.266;2023-12-20T04:26:21;9.60;99.90
1447;DHT22;717;51.522;7.266;2023-12-20T04:28:54;9.60;99.90
1447;DHT22;717;51.522;7.266;2023-12-20T04:31:24;9.50;99.90
1447;DHT22;717;51.522;7.266;2023-12-20T04:33:54;9.40;99.90
1447;DHT22;717;51.522;7.266;2023-12-20T04:36:24;9.40;99.90
1447;DHT22;717;51.522;7.266;2023-12-20T04:38:59;9.40;99.90
1447;DHT22;717;51.522;7.266;2023-12-20T04:41:30;9.30;99.90
1447;DHT22;717;51.522;7.266;2023-12-20T04:44:00;9.30;99.90
1447;DHT22;717;51.522;7.266;2023-12-20T04:46:30;9.30;99.90
1447;DHT22;717;51.522;7.266;2023-12-20T04:49:00;9.30;99.90
1447;DHT22;717;51.522;7.266;2023-12-20T04:51:27;9.30;99.90
1447;DHT22;717;51.522;7.266;2023-12-20T04:54:00;9.30;99.90
1447;DHT22;717;51.522;7.266;2023-12-20T04:56:30;9.30;99.90
1447;DHT22;717;51.522;7.266;2023-12-20T04:58:59;9.30;99.90
1447;DHT22;717;51.522;7.266;2023-12-20T05:01:29;9.40;99.90
1447;DHT22;717;51.522;7.266;2023-12-20T05:03:59;9.30;99.90
1447;DHT22;717;51.522;7.266;2023-12-20T05:06:29;9.20;99.90
1447;DHT22;717;51.522;7.266;2023-12-20T05:09:02;9.20;99.90
1447;DHT22;717;51.522;7.266;2023-12-20T05:11:33;9.20;99.90
1447;DHT22;717;51.522;7.266;2023-12-20T05:14:03;9.20;99.90
1447;DHT22;717;51.522;7.266;2023-12-20T05:16:34;9.10;99.90
1447;DHT22;717;51.522;7.266;2023-12-20T05:19:04;9.10;99.90
1447;DHT22;717;51.522;7.266;2023-12-20T05:21:35;9.10;99.90
1447;DHT22;717;51.522;7.266;2023-12-20T05:24:07;9.20;99.90
1447;DHT22;717;51.522;7.266;2023-12-20T05:26:37;9.10;99.90
1447;DHT22;717;51.522;7.266;2023-12-20T05:29:07;9.10;99.90
1447;DHT22;717;51.522;7.266;2023-12-20T05:31:37;9.10;99.90
1447;DHT22;717;51.522;7.266;2023-12-20T05:34:07;9.20;99.90
1447;DHT22;717;51.522;7.266;2023-12-20T05:36:37;9.20;99.90
1447;DHT22;717;51.522;7.266;2023-12-20T05:39:10;9.20;99.90
1447;DHT22;717;51.522;7.266;2023-12-20T05:41:40;9.20;99.90
1447;DHT22;717;51.522;7.266;2023-12-20T05:44:10;9.20;99.90
1447;DHT22;717;51.522;7.266;2023-12-20T05:46:40;9.20;99.90
1447;DHT22;717;51.522;7.266;2023-12-20T05:49:10;9.10;99.90
1447;DHT22;717;51.522;7.266;2023-12-20T05:51:41;9.10;99.90
1447;DHT22;717;51.522;7.266;2023-12-20T05:54:14;9.10;99.90
1447;DHT22;717;51.522;7.266;2023-12-20T05:56:44;9.00;99.90
1447;DHT22;717;51.522;7.266;2023-12-20T05:59:14;9.10;99.90
1447;DHT22;717;51.522;7.266;2023-12-20T06:01:44;9.10;99.90
1447;DHT22;717;51.522;7.266;2023-12-20T06:04:14;9.20;99.90
1447;DHT22;717;51.522;7.266;2023-12-20T06:06:45;9.20;99.90
1447;DHT22;717;51.522;7.266;2023-12-20T06:09:18;9.10;99.90
1447;DHT22;717;51.522;7.266;2023-12-20T06:11:48;9.10;99.90
1447;DHT22;717;51.522;7.266;2023-12-20T06:14:18;9.10;99.90
1447;DHT22;717;51.522;7.266;2023-12-20T06:16:48;9.20;99.90
1447;DHT22;717;51.522;7.266;2023-12-20T06:19:18;9.20;99.90
1447;DHT22;717;51.522;7.266;2023-12-20T06:21:48;9.20;99.90
1447;DHT22;717;51.522;7.266;2023-12-20T06:24:20;9.10;99.90
1447;DHT22;717;51.522;7.266;2023-12-20T06:26:54;9.10;99.90
1447;DHT22;717;51.522;7.266;2023-12-20T06:29:25;9.10;99.90
1447;DHT22;717;51.522;7.266;2023-12-20T06:31:55;9.20;99.90
1447;DHT22;717;51.522;7.266;2023-12-20T06:34:24;9.20;99.90
1447;DHT22;717;51.522;7.266;2023-12-20T06:36:54;9.20;99.90
1447;DHT22;717;51.522;7.266;2023-12-20T06:39:27;9.10;99.90
1447;DHT22;717;51.522;7.266;2023-12-20T06:41:57;9.20;99.90
1447;DHT22;717;51.522;7.266;2023-12-20T06:44:27;9.10;99.90
1447;DHT22;717;51.522;7.266;2023-12-20T06:46:58;9.20;99.90
1447;DHT22;717;51.522;7.266;2023-12-20T06:49:28;9.20;99.90
1447;DHT22;717;51.522;7.266;2023-12-20T06:51:58;9.10;99.90
1447;DHT22;717;51.522;7.266;2023-12-20T06:54:31;9.10;99.90
1447;DHT22;717;51.522;7.266;2023-12-20T06:57:02;9.20;99.90
1447;DHT22;717;51.522;7.266;2023-12-20T06:59:32;9.20;99.90
1447;DHT22;717;51.522;7.266;2023-12-20T07:02:02;9.20;99.90
1447;DHT22;717;51.522;7.266;2023-12-20T07:04:32;9.20;99.90
1447;DHT22;717;51.522;7.266;2023-12-20T07:07:02;9.20;99.90
1447;DHT22;717;51.522;7.266;2023-12-20T07:09:35;9.20;99.90
1447;DHT22;717;51.522;7.266;2023-12-20T07:12:06;9.30;99.90
1447;DHT22;717;51.522;7.266;2023-12-20T07:14:36;9.20;99.90
1447;DHT22;717;51.522;7.266;2023-12-20T07:17:06;9.30;99.90
1447;DHT22;717;51.522;7.266;2023-12-20T07:19:38;9.30;99.90
1447;DHT22;717;51.522;7.266;2023-12-20T07:22:08;9.30;99.90
1447;DHT22;717;51.522;7.266;2023-12-20T07:24:41;9.20;99.90
1447;DHT22;717;51.522;7.266;2023-12-20T07:27:11;9.20;99.90
1447;DHT22;717;51.522;7.266;2023-12-20T07:29:40;9.20;99.90
1447;DHT22;717;51.522;7.266;2023-12-20T07:32:10;9.30;99.90
1447;DHT22;717;51.522;7.266;2023-12-20T07:34:40;9.20;99.90
1447;DHT22;717;51.522;7.266;2023-12-20T07:37:10;9.30;99.90
1447;DHT22;717;51.522;7.266;2023-12-20T07:39:43;9.30;99.90
1447;DHT22;717;51.522;7.266;2023-12-20T07:42:13;9.20;99.90
1447;DHT22;717;51.522;7.266;2023-12-20T07:44:43;9.30;99.90
1447;DHT22;717;51.522;7.266;2023-12-20T07:47:13;9.30;99.90
1447;DHT22;717;51.522;7.266;2023-12-20T07:49:48;9.30;99.90
1447;DHT22;717;51.522;7.266;2023-12-20T07:52:19;9.30;99.90
1447;DHT22;717;51.522;7.266;2023-12-20T07:54:52;9.40;99.90
1447;DHT22;717;51.522;7.266;2023-12-20T07:57:23;9.30;99.90
1447;DHT22;717;51.522;7.266;2023-12-20T07:59:53;9.30;99.90
1447;DHT22;717;51.522;7.266;2023-12-20T08:02:23;9.30;99.90
1447;DHT22;717;51.522;7.266;2023-12-20T08:04:53;9.20;99.90
1447;DHT22;717;51.522;7.266;2023-12-20T08:07:23;9.30;99.90
1447;DHT22;717;51.522;7.266;2023-12-20T08:09:55;9.30;99.90
1447;DHT22;717;51.522;7.266;2023-12-20T08:12:25;9.40;99.90
1447;DHT22;717;51.522;7.266;2023-12-20T08:14:56;9.30;99.90
1447;DHT22;717;51.522;7.266;2023-12-20T08:17:26;9.30;99.90
1447;DHT22;717;51.522;7.266;2023-12-20T08:19:56;9.30;99.90
1447;DHT22;717;51.522;7.266;2023-12-20T08:22:27;9.30;99.90
1447;DHT22;717;51.522;7.266;2023-12-20T08:25:00;9.40;99.90
1447;DHT22;717;51.522;7.266;2023-12-20T08:27:30;9.40;99.90
1447;DHT22;717;51.522;7.266;2023-12-20T08:30:00;9.40;99.90
1447;DHT22;717;51.522;7.266;2023-12-20T08:32:30;9.40;99.90
1447;DHT22;717;51.522;7.266;2023-12-20T08:35:01;9.40;99.90
1447;DHT22;717;51.522;7.266;2023-12-20T08:37:31;9.40;99.90
1447;DHT22;717;51.522;7.266;2023-12-20T08:40:06;9.50;99.90
1447;DHT22;717;51.522;7.266;2023-12-20T08:42:36;9.40;99.90
1447;DHT22;717;51.522;7.266;2023-12-20T08:45:07;9.40;99.90
1447;DHT22;717;51.522;7.266;2023-12-20T08:47:37;9.40;99.90
1447;DHT22;717;51.522;7.266;2023-12-20T08:50:08;9.40;99.90
1447;DHT22;717;51.522;7.266;2023-12-20T08:52:38;9.50;99.90
1447;DHT22;717;51.522;7.266;2023-12-20T08:55:11;9.40;99.90
1447;DHT22;717;51.522;7.266;2023-12-20T08:57:43;9.40;99.90
1447;DHT22;717;51.522;7.266;2023-12-20T09:00:14;9.40;99.90
1447;DHT22;717;51.522;7.266;2023-12-20T09:02:47;9.40;99.90
1447;DHT22;717;51.522;7.266;2023-12-20T09:05:17;9.30;99.90
1447;DHT22;717;51.522;7.266;2023-12-20T09:07:47;9.40;99.90
1447;DHT22;717;51.522;7.266;2023-12-20T09:10:19;9.40;99.90
1447;DHT22;717;51.522;7.266;2023-12-20T09:12:50;9.40;99.90
1447;DHT22;717;51.522;7.266;2023-12-20T09:15:23;9.50;99.90
1447;DHT22;717;51.522;7.266;2023-12-20T09:17:53;9.50;99.90
1447;DHT22;717;51.522;7.266;2023-12-20T09:20:23;9.60;99.90
1447;DHT22;717;51.522;7.266;2023-12-20T09:22:54;9.50;99.90
1447;DHT22;717;51.522;7.266;2023-12-20T09:25:27;9.50;99.90
1447;DHT22;717;51.522;7.266;2023-12-20T09:27:57;9.50;99.90
1447;DHT22;717;51.522;7.266;2023-12-20T09:30:27;9.50;99.90
1447;DHT22;717;51.522;7.266;2023-12-20T09:32:57;9.50;99.90
1447;DHT22;717;51.522;7.266;2023-12-20T09:35:27;9.50;99.90
1447;DHT22;717;51.522;7.266;2023-12-20T09:37:57;9.50;99.90
1447;DHT22;717;51.522;7.266;2023-12-20T09:40:32;9.60;99.90
1447;DHT22;717;51.522;7.266;2023-12-20T09:43:04;9.60;99.90
1447;DHT22;717;51.522;7.266;2023-12-20T09:45:34;9.60;99.90
1447;DHT22;717;51.522;7.266;2023-12-20T09:48:05;9.50;99.90
1447;DHT22;717;51.522;7.266;2023-12-20T09:50:37;9.50;99.90
1447;DHT22;717;51.522;7.266;2023-12-20T09:53:09;9.50;99.90
1447;DHT22;717;51.522;7.266;2023-12-20T09:55:42;9.60;99.90
1447;DHT22;717;51.522;7.266;2023-12-20T09:58:12;9.50;99.90
1447;DHT22;717;51.522;7.266;2023-12-20T10:00:42;9.50;99.90
1447;DHT22;717;51.522;7.266;2023-12-20T10:03:14;9.50;99.90
1447;DHT22;717;51.522;7.266;2023-12-20T10:05:44;9.50;99.90
1447;DHT22;717;51.522;7.266;2023-12-20T10:08:16;9.50;99.90
1447;DHT22;717;51.522;7.266;2023-12-20T10:10:49;9.60;99.90
1447;DHT22;717;51.522;7.266;2023-12-20T10:13:19;9.70;99.90
1447;DHT22;717;51.522;7.266;2023-12-20T10:15:50;9.60;99.90
1447;DHT22;717;51.522;7.266;2023-12-20T10:18:20;9.60;99.90
1447;DHT22;717;51.522;7.266;2023-12-20T10:21:03;9.60;99.90
1447;DHT22;717;51.522;7.266;2023-12-20T10:23:34;9.60;99.90
1447;DHT22;717;51.522;7.266;2023-12-20T10:26:06;9.60;99.90
1447;DHT22;717;51.522;7.266;2023-12-20T10:28:37;9.60;99.90
1447;DHT22;717;51.522;7.266;2023-12-20T10:31:07;9.60;99.90
1447;DHT22;717;51.522;7.266;2023-12-20T10:33:40;9.60;99.90
1447;DHT22;717;51.522;7.266;2023-12-20T10:36:10;9.50;99.90
1447;DHT22;717;51.522;7.266;2023-12-20T10:38:42;9.60;99.90
1447;DHT22;717;51.522;7.266;2023-12-20T10:41:17;9.70;99.90
1447;DHT22;717;51.522;7.266;2023-12-20T10:43:48;9.60;99.90
1447;DHT22;717;51.522;7.266;2023-12-20T10:46:19;9.70;99.90
1447;DHT22;717;51.522;7.266;2023-12-20T10:48:51;9.70;99.90
1447;DHT22;717;51.522;7.266;2023-12-20T10:51:24;9.70;99.90
1447;DHT22;717;51.522;7.266;2023-12-20T10:53:55;9.70;99.90
1447;DHT22;717;51.522;7.266;2023-12-20T10:56:32;9.70;99.90
1447;DHT22;717;51.522;7.266;2023-12-20T10:59:04;9.70;99.90
1447;DHT22;717;51.522;7.266;2023-12-20T11:01:38;9.70;99.90
1447;DHT22;717;51.522;7.266;2023-12-20T11:04:15;9.70;99.90
1447;DHT22;717;51.522;7.266;2023-12-20T11:06:49;9.70;99.90
1447;DHT22;717;51.522;7.266;2023-12-20T11:09:24;9.70;99.90
1447;DHT22;717;51.522;7.266;2023-12-20T11:12:08;9.70;99.90
1447;DHT22;717;51.522;7.266;2023-12-20T11:14:42;9.80;99.90
1447;DHT22;717;51.522;7.266;2023-12-20T11:17:15;9.80;99.90
1447;DHT22;717;51.522;7.266;2023-12-20T11:20:04;9.80;99.90
1447;DHT22;717;51.522;7.266;2023-12-20T11:22:37;9.80;99.90
1447;DHT22;717;51.522;7.266;2023-12-20T11:25:10;9.80;99.90
1447;DHT22;717;51.522;7.266;2023-12-20T11:27:43;9.90;99.90
1447;DHT22;717;51.522;7.266;2023-12-20T11:30:16;9.90;99.90
1447;DHT22;717;51.522;7.266;2023-12-20T11:32:46;9.90;99.90
1447;DHT22;717;51.522;7.266;2023-12-20T11:35:18;9.90;99.90
1447;DHT22;717;51.522;7.266;2023-12-20T11:37:51;9.80;99.90
1447;DHT22;717;51.522;7.266;2023-12-20T11:40:23;9.80;99.90
1447;DHT22;717;51.522;7.266;2023-12-20T11:42:56;9.90;99.90
1447;DHT22;717;51.522;7.266;2023-12-20T11:45:26;9.90;99.90
1447;DHT22;717;51.522;7.266;2023-12-20T11:47:57;9.90;99.90
1447;DHT22;717;51.522;7.266;2023-12-20T11:50:27;10.00;99.90
1447;DHT22;717;51.522;7.266;2023-12-20T11:52:58;10.00;99.90
1447;DHT22;717;51.522;7.266;2023-12-20T11:55:28;10.10;99.90
1447;DHT22;717;51.522;7.266;2023-12-20T11:58:01;10.10;99.90
1447;DHT22;717;51.522;7.266;2023-12-20T12:00:31;10.10;99.90
1447;DHT22;717;51.522;7.266;2023-12-20T12:03:01;10.10;99.90
1447;DHT22;717;51.522;7.266;2023-12-20T12:05:31;10.10;99.90
1447;DHT22;717;51.522;7.266;2023-12-20T12:08:03;10.10;99.90
1447;DHT22;717;51.522;7.266;2023-12-20T12:10:35;10.00;99.90
1447;DHT22;717;51.522;7.266;2023-12-20T12:13:08;10.00;99.90
1447;DHT22;717;51.522;7.266;2023-12-20T12:15:38;10.00;99.90
1447;DHT22;717;51.522;7.266;2023-12-20T12:18:09;10.10;99.90
1447;DHT22;717;51.522;7.266;2023-12-20T12:20:39;10.10;99.90
1447;DHT22;717;51.522;7.266;2023-12-20T12:23:09;10.10;99.90
1447;DHT22;717;51.522;7.266;2023-12-20T12:25:39;10.00;99.90
1447;DHT22;717;51.522;7.266;2023-12-20T12:28:12;9.90;99.90
1447;DHT22;717;51.522;7.266;2023-12-20T12:30:42;9.90;99.90
1447;DHT22;717;51.522;7.266;2023-12-20T12:33:21;10.00;99.90
1447;DHT22;717;51.522;7.266;2023-12-20T12:35:51;9.90;99.90
1447;DHT22;717;51.522;7.266;2023-12-20T12:38:22;9.90;99.90
1447;DHT22;717;51.522;7.266;2023-12-20T12:40:52;9.90;99.90
1447;DHT22;717;51.522;7.266;2023-12-20T12:43:25;10.00;99.90
1447;DHT22;717;51.522;7.266;2023-12-20T12:45:56;9.90;99.90
1447;DHT22;717;51.522;7.266;2023-12-20T12:48:26;9.90;99.90
1447;DHT22;717;51.522;7.266;2023-12-20T12:50:56;9.90;99.90
1447;DHT22;717;51.522;7.266;2023-12-20T12:53:26;10.00;99.90
1447;DHT22;717;51.522;7.266;2023-12-20T12:55:56;10.00;99.90
1447;DHT22;717;51.522;7.266;2023-12-20T12:58:29;9.90;99.90
1447;DHT22;717;51.522;7.266;2023-12-20T13:00:59;9.90;99.90
1447;DHT22;717;51.522;7.266;2023-12-20T13:03:31;9.90;99.90
1447;DHT22;717;51.522;7.266;2023-12-20T13:06:01;9.90;99.90
1447;DHT22;717;51.522;7.266;2023-12-20T13:08:33;9.80;99.90
1447;DHT22;717;51.522;7.266;2023-12-20T13:11:03;9.90;99.90
1447;DHT22;717;51.522;7.266;2023-12-20T13:13:35;9.80;99.90
1447;DHT22;717;51.522;7.266;2023-12-20T13:16:06;9.90;99.90
1447;DHT22;717;51.522;7.266;2023-12-20T13:18:36;9.90;99.90
1447;DHT22;717;51.522;7.266;2023-12-20T13:21:09;9.90;99.90
1447;DHT22;717;51.522;7.266;2023-12-20T13:23:39;9.90;99.90
1447;DHT22;717;51.522;7.266;2023-12-20T13:26:09;10.00;99.90
1447;DHT22;717;51.522;7.266;2023-12-20T13:28:41;10.00;99.90
1447;DHT22;717;51.522;7.266;2023-12-20T13:31:11;10.10;99.90
1447;DHT22;717;51.522;7.266;2023-12-20T13:33:41;10.10;99.90
1447;DHT22;717;51.522;7.266;2023-12-20T13:36:12;10.10;99.90
1447;DHT22;717;51.522;7.266;2023-12-20T13:38:43;10.10;99.90
1447;DHT22;717;51.522;7.266;2023-12-20T13:41:13;10.10;99.90
1447;DHT22;717;51.522;7.266;2023-12-20T13:43:45;10.10;99.90
1447;DHT22;717;51.522;7.266;2023-12-20T13:46:15;10.00;99.90
1447;DHT22;717;51.522;7.266;2023-12-20T13:48:45;10.10;99.90
1447;DHT22;717;51.522;7.266;2023-12-20T13:51:16;10.10;99.90
1447;DHT22;717;51.522;7.266;2023-12-20T13:53:48;10.20;99.90
1447;DHT22;717;51.522;7.266;2023-12-20T13:56:18;10.10;99.90
1447;DHT22;717;51.522;7.266;2023-12-20T13:58:52;10.10;99.90
1447;DHT22;717;51.522;7.266;2023-12-20T14:01:23;10.00;99.90
1447;DHT22;717;51.522;7.266;2023-12-20T14:03:53;10.10;99.90
1447;DHT22;717;51.522;7.266;2023-12-20T14:06:23;10.10;99.90
1447;DHT22;717;51.522;7.266;2023-12-20T14:08:53;10.20;99.90
1447;DHT22;717;51.522;7.266;2023-12-20T14:11:23;10.20;99.90
1447;DHT22;717;51.522;7.266;2023-12-20T14:13:56;10.20;99.90
1447;DHT22;717;51.522;7.266;2023-12-20T14:16:26;10.10;99.90
1447;DHT22;717;51.522;7.266;2023-12-20T14:18:56;10.10;99.90
1447;DHT22;717;51.522;7.266;2023-12-20T14:21:26;10.00;99.90
1447;DHT22;717;51.522;7.266;2023-12-20T14:23:56;10.10;99.90
1447;DHT22;717;51.522;7.266;2023-12-20T14:26:27;10.10;99.90
1447;DHT22;717;51.522;7.266;2023-12-20T14:28:59;10.20;99.90
1447;DHT22;717;51.522;7.266;2023-12-20T14:31:31;10.10;99.90
1447;DHT22;717;51.522;7.266;2023-12-20T14:34:01;10.10;99.90
1447;DHT22;717;51.522;7.266;2023-12-20T14:36:31;10.10;99.90
1447;DHT22;717;51.522;7.266;2023-12-20T14:39:01;10.10;99.90
1447;DHT22;717;51.522;7.266;2023-12-20T14:41:31;10.10;99.90
1447;DHT22;717;51.522;7.266;2023-12-20T14:44:04;10.10;99.90
1447;DHT22;717;51.522;7.266;2023-12-20T14:46:34;10.10;99.90
1447;DHT22;717;51.522;7.266;2023-12-20T14:49:08;10.20;99.90
1447;DHT22;717;51.522;7.266;2023-12-20T14:51:38;10.20;99.90
1447;DHT22;717;51.522;7.266;2023-12-20T14:54:08;10.10;99.90
1447;DHT22;717;51.522;7.266;2023-12-20T14:56:38;10.10;99.90
1447;DHT22;717;51.522;7.266;2023-12-20T14:59:11;10.20;99.90
1447;DHT22;717;51.522;7.266;2023-12-20T15:01:41;10.20;99.90
1447;DHT22;717;51.522;7.266;2023-12-20T15:04:11;10.10;99.90
1447;DHT22;717;51.522;7.266;2023-12-20T15:06:41;10.20;99.90
1447;DHT22;717;51.522;7.266;2023-12-20T15:09:11;10.20;99.90
1447;DHT22;717;51.522;7.266;2023-12-20T15:11:41;10.20;99.90
1447;DHT22;717;51.522;7.266;2023-12-20T15:14:14;10.30;99.90
1447;DHT22;717;51.522;7.266;2023-12-20T15:16:47;10.40;99.90
1447;DHT22;717;51.522;7.266;2023-12-20T15:19:17;10.30;99.90
1447;DHT22;717;51.522;7.266;2023-12-20T15:21:47;10.20;99.90
1447;DHT22;717;51.522;7.266;2023-12-20T15:24:17;10.10;99.90
1447;DHT22;717;51.522;7.266;2023-12-20T15:26:55;10.00;99.90
1447;DHT22;717;51.522;7.266;2023-12-20T15:29:27;10.10;99.90
1447;DHT22;717;51.522;7.266;2023-12-20T15:31:57;10.10;99.90
1447;DHT22;717;51.522;7.266;2023-12-20T15:34:27;10.10;99.90
1447;DHT22;717;51.522;7.266;2023-12-20T15:36:58;10.20;99.90
1447;DHT22;717;51.522;7.266;2023-12-20T15:39:28;10.20;99.90
1447;DHT22;717;51.522;7.266;2023-12-20T15:41:58;10.20;99.90
1447;DHT22;717;51.522;7.266;2023-12-20T15:44:30;10.20;99.90
1447;DHT22;717;51.522;7.266;2023-12-20T15:47:00;10.20;99.90
1447;DHT22;717;51.522;7.266;2023-12-20T15:49:30;10.30;99.90
1447;DHT22;717;51.522;7.266;2023-12-20T15:52:00;10.30;99.90
1447;DHT22;717;51.522;7.266;2023-12-20T15:54:33;10.30;99.90
1447;DHT22;717;51.522;7.266;2023-12-20T15:57:05;10.30;99.90
1447;DHT22;717;51.522;7.266;2023-12-20T15:59:39;10.40;99.90
1447;DHT22;717;51.522;7.266;2023-12-20T16:02:09;10.40;99.90
1447;DHT22;717;51.522;7.266;2023-12-20T16:04:39;10.40;99.90
1447;DHT22;717;51.522;7.266;2023-12-20T16:07:09;10.40;99.90
1447;DHT22;717;51.522;7.266;2023-12-20T16:09:39;10.40;99.90
1447;DHT22;717;51.522;7.266;2023-12-20T16:12:09;10.30;99.90
1447;DHT22;717;51.522;7.266;2023-12-20T16:14:41;10.30;99.90
1447;DHT22;717;51.522;7.266;2023-12-20T16:17:11;10.20;99.90
1447;DHT22;717;51.522;7.266;2023-12-20T16:19:43;10.20;99.90
1447;DHT22;717;51.522;7.266;2023-12-20T16:22:13;10.30;99.90
1447;DHT22;717;51.522;7.266;2023-12-20T16:24:43;10.30;99.90
1447;DHT22;717;51.522;7.266;2023-12-20T16:27:13;10.30;99.90
1447;DHT22;717;51.522;7.266;2023-12-20T16:29:45;10.40;99.90
1447;DHT22;717;51.522;7.266;2023-12-20T16:32:15;10.40;99.90
1447;DHT22;717;51.522;7.266;2023-12-20T16:34:45;10.30;99.90
1447;DHT22;717;51.522;7.266;2023-12-20T16:37:15;10.40;99.90
1447;DHT22;717;51.522;7.266;2023-12-20T16:39:43;10.40;99.90
1447;DHT22;717;51.522;7.266;2023-12-20T16:42:13;10.40;99.90
1447;DHT22;717;51.522;7.266;2023-12-20T16:44:46;10.40;99.90
1447;DHT22;717;51.522;7.266;2023-12-20T16:47:16;10.40;99.90
1447;DHT22;717;51.522;7.266;2023-12-20T16:49:46;10.50;99.90
1447;DHT22;717;51.522;7.266;2023-12-20T16:52:16;10.40;99.90